Time;durP1;ratioP1;P1;durP2;ratioP2;P2;SDS_P1;SDS_P2;PMS_P1;PMS_P2;Temp;Humidity;BMP_temperature;BMP_pressure;BME280_temperature;BME280_humidity;BME280_pressure;Samples;Min_cycle;Max_cycle;Signal;HPM_P1;HPM_P2
2023/03/24 00:00:12;;;;;;;;;;;10.90;87.30;;;;;;5002535;28;19910;-96
2023/03/24 00:02:40;;;;;;;;;;;10.90;87.70;;;;;;5002473;28;19894;-96
2023/03/24 00:05:22;;;;;;;;;;;10.90;88.20;;;;;;5001446;28;19909;-97
2023/03/24 00:07:49;;;;;;;;;;;10.90;88.70;;;;;;5001420;28;19898;-96
2023/03/24 00:10:17;;;;;;;;;;;10.90;88.30;;;;;;5002229;28;19901;-96
2023/03/24 00:12:45;;;;;;;;;;;10.80;87.40;;;;;;5019431;28;19912;-96
2023/03/24 00:15:14;;;;;;;;;;;10.70;86.90;;;;;;5002528;28;19933;-96
2023/03/24 00:17:41;;;;;;;;;;;10.70;87.00;;;;;;5003352;28;19917;-96
2023/03/24 00:20:15;;;;;;;;;;;10.80;87.30;;;;;;5001381;28;19948;-96
2023/03/24 00:22:49;;;;;;;;;;;10.70;87.10;;;;;;5019365;28;19909;-96
2023/03/24 00:25:17;;;;;;;;;;;10.70;87.10;;;;;;5001658;28;19917;-96
2023/03/24 00:27:50;;;;;;;;;;;10.70;87.10;;;;;;5001778;28;19942;-96
2023/03/24 00:30:18;;;;;;;;;;;10.70;87.30;;;;;;5002593;28;19939;-96
2023/03/24 00:32:51;;;;;;;;;;;10.70;87.10;;;;;;5017412;28;19910;-96
2023/03/24 00:35:17;;;;;;;;;;;10.50;86.10;;;;;;5002098;28;19910;-96
2023/03/24 00:37:45;;;;;;;;;;;10.50;85.80;;;;;;5001572;28;19909;-98
2023/03/24 00:40:16;;;;;;;;;;;10.40;85.90;;;;;;5001712;28;19974;-96
2023/03/24 00:42:46;;;;;;;;;;;10.40;85.30;;;;;;5000719;28;19910;-96
2023/03/24 00:45:21;;;;;;;;;;;10.30;85.90;;;;;;5000888;28;19945;-96
2023/03/24 00:47:52;;;;;;;;;;;10.30;86.00;;;;;;4984642;28;20436;-96
2023/03/24 00:50:27;;;;;;;;;;;10.30;86.50;;;;;;5018730;28;19910;-96
2023/03/24 00:52:54;;;;;;;;;;;10.40;86.40;;;;;;5001823;28;19914;-96
2023/03/24 00:55:21;;;;;;;;;;;10.40;86.10;;;;;;5018355;28;19954;-96
2023/03/24 00:57:50;;;;;;;;;;;10.30;86.40;;;;;;5001368;28;19944;-96
2023/03/24 01:00:26;;;;;;;;;;;10.30;86.30;;;;;;5000750;28;19894;-96
2023/03/24 01:02:55;;;;;;;;;;;10.30;86.70;;;;;;5000928;28;19917;-96
2023/03/24 01:05:24;;;;;;;;;;;10.30;86.90;;;;;;4985048;28;19914;-96
2023/03/24 01:07:51;;;;;;;;;;;10.40;86.90;;;;;;5018024;28;19994;-96
2023/03/24 01:10:18;;;;;;;;;;;10.40;87.20;;;;;;5000641;28;19910;-96
2023/03/24 01:12:46;;;;;;;;;;;10.30;87.30;;;;;;4999806;28;19917;-96
2023/03/24 01:15:23;;;;;;;;;;;10.30;87.40;;;;;;5018066;28;19909;-96
2023/03/24 01:17:52;;;;;;;;;;;10.20;87.70;;;;;;4999990;28;19917;-96
2023/03/24 01:20:18;;;;;;;;;;;10.10;88.20;;;;;;4999774;28;19910;-96
2023/03/24 01:22:45;;;;;;;;;;;10.20;88.90;;;;;;5016957;28;20012;-96
2023/03/24 01:25:18;;;;;;;;;;;10.10;89.10;;;;;;4999919;28;19909;-96
2023/03/24 01:27:46;;;;;;;;;;;10.00;89.60;;;;;;5016891;28;19964;-96
2023/03/24 01:30:14;;;;;;;;;;;10.00;89.10;;;;;;5016487;28;19910;-96
2023/03/24 01:32:40;;;;;;;;;;;10.00;88.60;;;;;;4998973;28;19917;-96
2023/03/24 01:35:07;;;;;;;;;;;10.00;88.20;;;;;;4999158;28;19910;-96
2023/03/24 01:37:34;;;;;;;;;;;9.90;87.40;;;;;;5015781;28;19913;-96
2023/03/24 01:40:01;;;;;;;;;;;10.00;87.60;;;;;;4998515;28;19909;-96
2023/03/24 01:42:27;;;;;;;;;;;10.00;87.50;;;;;;4998042;28;19917;-96
2023/03/24 01:44:56;;;;;;;;;;;9.90;87.70;;;;;;4997491;28;19914;-96
2023/03/24 01:47:22;;;;;;;;;;;9.90;87.30;;;;;;5010863;28;19921;-96
2023/03/24 01:49:52;;;;;;;;;;;9.90;86.60;;;;;;4991876;28;19910;-96
2023/03/24 01:52:20;;;;;;;;;;;9.80;86.20;;;;;;5010537;28;19917;-96
2023/03/24 01:54:48;;;;;;;;;;;9.90;86.20;;;;;;5010996;28;19922;-96
2023/03/24 01:57:19;;;;;;;;;;;9.90;86.20;;;;;;4993621;28;19914;-96
2023/03/24 01:59:47;;;;;;;;;;;9.90;86.50;;;;;;4994229;28;19917;-96
2023/03/24 02:02:13;;;;;;;;;;;9.90;87.50;;;;;;4992905;28;19920;-96
2023/03/24 02:04:44;;;;;;;;;;;9.90;88.60;;;;;;5010605;28;20036;-96
2023/03/24 02:07:14;;;;;;;;;;;9.90;88.60;;;;;;4993260;28;19914;-96
2023/03/24 02:09:39;;;;;;;;;;;9.90;88.70;;;;;;5010398;28;19932;-96
2023/03/24 02:12:06;;;;;;;;;;;9.90;89.10;;;;;;4993122;28;20330;-97
2023/03/24 02:14:32;;;;;;;;;;;9.90;88.90;;;;;;4992815;28;19916;-96
2023/03/24 02:17:00;;;;;;;;;;;9.80;88.20;;;;;;4992224;28;19910;-96
2023/03/24 02:19:26;;;;;;;;;;;9.60;87.60;;;;;;5010031;28;19945;-96
2023/03/24 02:22:27;;;;;;;;;;;9.50;87.40;;;;;;5009867;28;19917;-96
2023/03/24 02:25:12;;;;;;;;;;;9.50;88.00;;;;;;4914934;29;19922;-96
2023/03/24 02:27:44;;;;;;;;;;;9.40;87.60;;;;;;4986467;28;19914;-96
2023/03/24 02:30:42;;;;;;;;;;;9.30;86.90;;;;;;4992455;28;19964;-96
2023/03/24 02:33:26;;;;;;;;;;;9.30;87.00;;;;;;4950398;28;19949;-96
2023/03/24 02:36:10;;;;;;;;;;;9.20;87.10;;;;;;4991272;28;19917;-96
2023/03/24 02:38:39;;;;;;;;;;;9.10;87.10;;;;;;4991931;28;19945;-96
2023/03/24 02:41:12;;;;;;;;;;;9.10;86.80;;;;;;5009596;28;19917;-96
2023/03/24 02:43:53;;;;;;;;;;;8.90;86.50;;;;;;4991718;28;19914;-96
2023/03/24 02:46:23;;;;;;;;;;;9.00;86.40;;;;;;5009223;28;19933;-96
2023/03/24 02:49:04;;;;;;;;;;;8.90;86.70;;;;;;4992762;28;19933;-96
2023/03/24 02:51:33;;;;;;;;;;;8.90;87.60;;;;;;5009298;28;19909;-96
2023/03/24 02:54:11;;;;;;;;;;;8.90;88.00;;;;;;5005364;23;19930;-97
2023/03/24 02:56:46;;;;;;;;;;;8.90;88.50;;;;;;4990859;28;19968;-96
2023/03/24 02:59:29;;;;;;;;;;;8.80;88.20;;;;;;4992004;28;19917;-96
2023/03/24 03:02:01;;;;;;;;;;;8.80;87.70;;;;;;4989218;28;19920;-97
2023/03/24 03:04:31;;;;;;;;;;;8.70;89.10;;;;;;4988489;28;19917;-96
2023/03/24 03:06:59;;;;;;;;;;;8.60;89.00;;;;;;5006088;28;20367;-96
2023/03/24 03:09:26;;;;;;;;;;;8.60;89.00;;;;;;5006172;28;19910;-96
2023/03/24 03:11:55;;;;;;;;;;;8.70;89.90;;;;;;5005613;28;19917;-96
2023/03/24 03:14:27;;;;;;;;;;;8.90;92.20;;;;;;4988418;28;19910;-96
2023/03/24 03:16:58;;;;;;;;;;;8.90;91.70;;;;;;4988255;28;20370;-96
2023/03/24 03:19:37;;;;;;;;;;;8.90;90.90;;;;;;4987872;28;19914;-96
2023/03/24 03:22:04;;;;;;;;;;;8.90;90.40;;;;;;5006069;28;19910;-96
2023/03/24 03:24:32;;;;;;;;;;;9.00;90.20;;;;;;5005852;28;19981;-96
2023/03/24 03:27:00;;;;;;;;;;;8.90;90.30;;;;;;4987496;28;19914;-96
2023/03/24 03:29:27;;;;;;;;;;;8.90;90.80;;;;;;5004994;28;19978;-96
2023/03/24 03:31:59;;;;;;;;;;;8.80;89.50;;;;;;5004592;28;19914;-96
2023/03/24 03:34:33;;;;;;;;;;;8.80;89.50;;;;;;4988182;28;19990;-96
2023/03/24 03:36:59;;;;;;;;;;;8.80;89.00;;;;;;5006035;28;19910;-96
2023/03/24 03:39:30;;;;;;;;;;;8.80;88.90;;;;;;5006861;28;19913;-96
2023/03/24 03:41:56;;;;;;;;;;;8.70;88.90;;;;;;5006261;28;19973;-96
2023/03/24 03:44:22;;;;;;;;;;;8.70;88.80;;;;;;5006325;28;19910;-96
2023/03/24 03:46:47;;;;;;;;;;;8.70;89.10;;;;;;5005882;28;19921;-96
2023/03/24 03:49:13;;;;;;;;;;;8.70;88.60;;;;;;5005535;28;19910;-96
2023/03/24 03:51:39;;;;;;;;;;;8.70;87.80;;;;;;4984210;28;19910;-96
2023/03/24 03:54:07;;;;;;;;;;;8.80;88.20;;;;;;4997888;28;19925;-96
2023/03/24 03:56:34;;;;;;;;;;;8.70;88.00;;;;;;5001300;28;20001;-96
2023/03/24 03:59:01;;;;;;;;;;;8.50;87.70;;;;;;5001347;28;19925;-96
2023/03/24 04:01:28;;;;;;;;;;;8.40;87.40;;;;;;5002351;28;20070;-96
2023/03/24 04:04:20;;;;;;;;;;;8.30;88.70;;;;;;4984657;28;19917;-96
2023/03/24 04:06:52;;;;;;;;;;;8.40;88.70;;;;;;5002050;28;20291;-96
2023/03/24 04:09:27;;;;;;;;;;;8.30;89.10;;;;;;4984695;28;20355;-96
2023/03/24 04:12:15;;;;;;;;;;;8.30;89.40;;;;;;5002654;28;19910;-96
2023/03/24 04:14:53;;;;;;;;;;;8.30;89.90;;;;;;5002502;28;20009;-96
2023/03/24 04:17:36;;;;;;;;;;;8.40;90.70;;;;;;5001835;28;19910;-96
2023/03/24 04:20:13;;;;;;;;;;;8.40;91.30;;;;;;5000805;28;19910;-96
2023/03/24 04:22:42;;;;;;;;;;;8.40;91.40;;;;;;4982401;28;20382;-96
2023/03/24 04:25:27;;;;;;;;;;;8.50;91.50;;;;;;5001613;28;19913;-96
2023/03/24 04:28:01;;;;;;;;;;;8.60;91.10;;;;;;5002344;28;20383;-96
2023/03/24 04:30:30;;;;;;;;;;;8.60;89.80;;;;;;5002280;28;19910;-96
2023/03/24 04:32:57;;;;;;;;;;;8.50;89.00;;;;;;5001409;28;19910;-96
2023/03/24 04:35:30;;;;;;;;;;;8.50;88.90;;;;;;5002274;28;20386;-96
2023/03/24 04:38:02;;;;;;;;;;;8.60;88.70;;;;;;4984185;28;20295;-96
2023/03/24 04:40:33;;;;;;;;;;;8.70;88.50;;;;;;5001569;28;20359;-96
2023/03/24 04:43:00;;;;;;;;;;;8.70;89.10;;;;;;4984077;28;19909;-96
2023/03/24 04:45:26;;;;;;;;;;;8.70;89.40;;;;;;4984448;28;19992;-96
2023/03/24 04:47:57;;;;;;;;;;;8.70;88.90;;;;;;4984507;28;19941;-96
2023/03/24 04:50:37;;;;;;;;;;;8.60;87.90;;;;;;5002251;28;19910;-96
2023/03/24 04:53:03;;;;;;;;;;;8.70;87.60;;;;;;4984499;28;19910;-96
2023/03/24 04:55:48;;;;;;;;;;;8.70;88.30;;;;;;5000964;28;19922;-96
2023/03/24 04:58:14;;;;;;;;;;;8.70;88.90;;;;;;5001863;28;19916;-96
2023/03/24 05:00:40;;;;;;;;;;;8.50;87.70;;;;;;4983396;28;19909;-96
2023/03/24 05:03:06;;;;;;;;;;;8.40;87.60;;;;;;4999929;28;20060;-96
2023/03/24 05:05:31;;;;;;;;;;;8.40;87.00;;;;;;4983397;28;19963;-96
2023/03/24 05:07:57;;;;;;;;;;;8.20;87.10;;;;;;4982844;28;20012;-96
2023/03/24 05:10:23;;;;;;;;;;;8.00;87.20;;;;;;4983154;28;19914;-96
2023/03/24 05:12:49;;;;;;;;;;;8.00;87.40;;;;;;4983687;28;19960;-96
2023/03/24 05:15:14;;;;;;;;;;;8.00;87.30;;;;;;5001227;28;19917;-96
2023/03/24 05:17:40;;;;;;;;;;;8.00;87.50;;;;;;4983477;28;20417;-96
2023/03/24 05:20:09;;;;;;;;;;;8.00;87.70;;;;;;5001452;28;20339;-96
2023/03/24 05:22:37;;;;;;;;;;;8.00;87.80;;;;;;5001877;28;19972;-96
2023/03/24 05:25:03;;;;;;;;;;;7.90;88.00;;;;;;5000636;28;19910;-96
2023/03/24 05:27:29;;;;;;;;;;;7.80;88.90;;;;;;4998979;28;19914;-96
2023/03/24 05:29:55;;;;;;;;;;;7.60;88.50;;;;;;4999072;28;20297;-96
2023/03/24 05:32:20;;;;;;;;;;;7.70;90.90;;;;;;5000240;28;19933;-96
2023/03/24 05:34:46;;;;;;;;;;;7.90;91.70;;;;;;4997756;28;20302;-96
2023/03/24 05:37:13;;;;;;;;;;;8.00;91.70;;;;;;4980997;28;19914;-96
2023/03/24 05:39:38;;;;;;;;;;;8.00;92.00;;;;;;4998386;28;19910;-96
2023/03/24 05:42:04;;;;;;;;;;;8.00;91.90;;;;;;4998196;28;19937;-96
2023/03/24 05:44:30;;;;;;;;;;;8.10;92.50;;;;;;4998329;28;20282;-96
2023/03/24 05:46:56;;;;;;;;;;;8.10;92.50;;;;;;4998668;28;19920;-96
2023/03/24 05:49:21;;;;;;;;;;;8.10;93.10;;;;;;4981518;28;20393;-96
2023/03/24 05:51:47;;;;;;;;;;;8.20;93.10;;;;;;4998785;28;19910;-96
2023/03/24 05:54:12;;;;;;;;;;;8.30;93.10;;;;;;4977583;28;20320;-96
2023/03/24 05:56:38;;;;;;;;;;;8.40;92.90;;;;;;4962401;29;19910;-96
2023/03/24 05:59:04;;;;;;;;;;;8.30;92.30;;;;;;4960938;29;19917;-96
2023/03/24 06:01:29;;;;;;;;;;;8.20;91.30;;;;;;4959576;28;19938;-96
2023/03/24 06:03:55;;;;;;;;;;;8.20;90.70;;;;;;4960329;29;19917;-96
2023/03/24 06:06:21;;;;;;;;;;;8.10;90.40;;;;;;4959545;29;19911;-96
2023/03/24 06:08:47;;;;;;;;;;;8.00;90.60;;;;;;4959402;29;20004;-96
2023/03/24 06:11:12;;;;;;;;;;;8.10;92.20;;;;;;4958053;29;19911;-96
2023/03/24 06:13:38;;;;;;;;;;;8.40;92.30;;;;;;4955969;29;19911;-96
2023/03/24 06:16:04;;;;;;;;;;;8.50;92.10;;;;;;4958126;29;19910;-96
2023/03/24 06:18:30;;;;;;;;;;;8.60;92.00;;;;;;4956637;28;19958;-96
2023/03/24 06:20:56;;;;;;;;;;;8.80;92.00;;;;;;4961393;29;19946;-96
2023/03/24 06:23:24;;;;;;;;;;;8.90;91.90;;;;;;4964862;29;19916;-96
2023/03/24 06:25:50;;;;;;;;;;;9.00;91.80;;;;;;4965159;29;19911;-96
2023/03/24 06:28:16;;;;;;;;;;;9.10;91.70;;;;;;4966191;29;19914;-96
2023/03/24 06:30:43;;;;;;;;;;;9.20;91.80;;;;;;4966993;29;19917;-96
2023/03/24 06:33:10;;;;;;;;;;;9.30;92.10;;;;;;4966084;29;19996;-96
2023/03/24 06:35:36;;;;;;;;;;;9.50;91.80;;;;;;4970435;28;19925;-96
2023/03/24 06:38:01;;;;;;;;;;;9.70;91.50;;;;;;4969849;29;19979;-96
2023/03/24 06:40:27;;;;;;;;;;;9.80;91.20;;;;;;4973404;29;19914;-96
2023/03/24 06:42:53;;;;;;;;;;;10.00;91.10;;;;;;4970592;29;19977;-96
2023/03/24 06:45:20;;;;;;;;;;;10.20;90.60;;;;;;4973518;29;19910;-96
2023/03/24 06:47:54;;;;;;;;;;;10.40;90.40;;;;;;4974881;29;19914;-96
2023/03/24 06:50:21;;;;;;;;;;;10.50;90.10;;;;;;4975101;29;19910;-96
2023/03/24 06:52:47;;;;;;;;;;;10.70;89.50;;;;;;4974728;28;19910;-96
2023/03/24 06:55:14;;;;;;;;;;;10.90;89.00;;;;;;4974394;28;19923;-96
2023/03/24 06:57:40;;;;;;;;;;;11.10;88.40;;;;;;4974830;29;19918;-96
2023/03/24 07:00:07;;;;;;;;;;;11.20;87.20;;;;;;4974338;29;19962;-96
2023/03/24 07:02:34;;;;;;;;;;;11.40;86.90;;;;;;4975254;28;19918;-96
2023/03/24 07:05:05;;;;;;;;;;;11.50;86.70;;;;;;4976027;29;19910;-96
2023/03/24 07:07:31;;;;;;;;;;;11.60;86.40;;;;;;4972435;29;19914;-96
2023/03/24 07:09:57;;;;;;;;;;;11.80;86.60;;;;;;4971215;29;19918;-96
2023/03/24 07:12:23;;;;;;;;;;;11.90;86.40;;;;;;4967854;29;19910;-96
2023/03/24 07:14:49;;;;;;;;;;;12.10;86.40;;;;;;4963824;29;19957;-96
2023/03/24 07:17:15;;;;;;;;;;;12.30;86.00;;;;;;4965167;29;19957;-96
2023/03/24 07:19:40;;;;;;;;;;;12.40;85.80;;;;;;4964201;29;19910;-96
2023/03/24 07:22:07;;;;;;;;;;;12.60;85.40;;;;;;4962225;29;19910;-96
2023/03/24 07:24:34;;;;;;;;;;;12.80;84.70;;;;;;4957590;29;19911;-96
2023/03/24 07:27:00;;;;;;;;;;;12.90;84.00;;;;;;4958823;29;19914;-96
2023/03/24 07:29:25;;;;;;;;;;;13.10;83.80;;;;;;4959812;28;19910;-96
2023/03/24 07:31:53;;;;;;;;;;;13.20;83.60;;;;;;4962106;29;19914;-96
2023/03/24 07:34:19;;;;;;;;;;;13.30;83.00;;;;;;4964228;29;19911;-96
2023/03/24 07:36:44;;;;;;;;;;;13.40;82.70;;;;;;4959628;29;20561;-96
2023/03/24 07:39:10;;;;;;;;;;;13.30;82.30;;;;;;4958933;29;19910;-96
2023/03/24 07:41:36;;;;;;;;;;;13.30;82.20;;;;;;4960114;29;19910;-96
2023/03/24 07:44:01;;;;;;;;;;;13.30;82.00;;;;;;4959104;29;19966;-96
2023/03/24 07:46:27;;;;;;;;;;;13.30;81.70;;;;;;4962287;29;19937;-96
2023/03/24 07:48:52;;;;;;;;;;;13.30;81.80;;;;;;4964927;29;20292;-96
2023/03/24 07:51:18;;;;;;;;;;;13.40;81.80;;;;;;4967960;29;19969;-96
2023/03/24 07:53:46;;;;;;;;;;;13.60;81.70;;;;;;4969630;28;19915;-96
2023/03/24 07:56:12;;;;;;;;;;;13.80;80.90;;;;;;5006446;28;19918;-96
2023/03/24 07:58:38;;;;;;;;;;;14.10;80.40;;;;;;4988755;28;20401;-96
2023/03/24 08:01:06;;;;;;;;;;;14.30;79.30;;;;;;5008166;28;20012;-96
2023/03/24 08:03:32;;;;;;;;;;;14.50;79.20;;;;;;5006903;28;19909;-96
2023/03/24 08:05:58;;;;;;;;;;;14.70;78.10;;;;;;5005135;28;19917;-96
2023/03/24 08:08:24;;;;;;;;;;;14.80;77.70;;;;;;5005162;28;20378;-96
2023/03/24 08:10:50;;;;;;;;;;;15.00;78.10;;;;;;4990692;28;19916;-96
2023/03/24 08:13:16;;;;;;;;;;;15.00;76.60;;;;;;4989795;28;19909;-96
2023/03/24 08:15:42;;;;;;;;;;;15.10;76.40;;;;;;5007021;28;19925;-96
2023/03/24 08:18:08;;;;;;;;;;;15.20;75.70;;;;;;5005321;28;19910;-96
2023/03/24 08:20:34;;;;;;;;;;;15.10;76.10;;;;;;4988216;28;19910;-96
2023/03/24 08:23:03;;;;;;;;;;;15.10;76.70;;;;;;4990158;28;20322;-96
2023/03/24 08:25:29;;;;;;;;;;;15.30;76.50;;;;;;4983402;28;19909;-96
2023/03/24 08:27:55;;;;;;;;;;;15.40;76.00;;;;;;4999120;28;19917;-96
2023/03/24 08:30:22;;;;;;;;;;;15.40;76.00;;;;;;4981515;28;20287;-96
2023/03/24 08:32:51;;;;;;;;;;;15.40;75.40;;;;;;4998867;28;19937;-96
2023/03/24 08:35:17;;;;;;;;;;;15.40;75.70;;;;;;5000584;28;20008;-96
2023/03/24 08:37:44;;;;;;;;;;;15.40;76.30;;;;;;4988940;28;19917;-96
2023/03/24 08:40:12;;;;;;;;;;;15.40;75.20;;;;;;4998883;28;19921;-96
2023/03/24 08:42:38;;;;;;;;;;;15.50;75.80;;;;;;4987032;28;19914;-96
2023/03/24 08:45:04;;;;;;;;;;;15.60;75.00;;;;;;4995309;28;19917;-96
2023/03/24 08:47:30;;;;;;;;;;;15.60;74.90;;;;;;4997501;28;19938;-96
2023/03/24 08:49:57;;;;;;;;;;;15.60;75.40;;;;;;5014891;28;19917;-96
2023/03/24 08:52:23;;;;;;;;;;;15.70;75.30;;;;;;4997778;28;19909;-96
2023/03/24 08:54:49;;;;;;;;;;;15.70;75.00;;;;;;5013642;28;19921;-96
2023/03/24 08:57:16;;;;;;;;;;;15.80;75.30;;;;;;4996537;28;20008;-96
2023/03/24 08:59:42;;;;;;;;;;;15.80;75.60;;;;;;5012466;28;19910;-96
2023/03/24 09:02:11;;;;;;;;;;;15.80;74.90;;;;;;4993403;28;19909;-96
2023/03/24 09:04:37;;;;;;;;;;;15.70;75.40;;;;;;5011057;28;20420;-96
2023/03/24 09:07:04;;;;;;;;;;;15.80;75.50;;;;;;4992378;28;19913;-96
2023/03/24 09:09:33;;;;;;;;;;;15.80;74.80;;;;;;5008184;28;19941;-96
2023/03/24 09:11:59;;;;;;;;;;;15.80;75.00;;;;;;4990032;28;19910;-96
2023/03/24 09:14:25;;;;;;;;;;;15.80;75.10;;;;;;5007673;28;20007;-96
2023/03/24 09:16:51;;;;;;;;;;;15.70;74.40;;;;;;5006559;28;19910;-96
2023/03/24 09:19:17;;;;;;;;;;;15.70;74.70;;;;;;4988367;28;19910;-96
2023/03/24 09:21:46;;;;;;;;;;;15.70;75.50;;;;;;4988511;28;20040;-96
2023/03/24 09:24:12;;;;;;;;;;;15.70;74.90;;;;;;4996388;28;19910;-96
2023/03/24 09:26:38;;;;;;;;;;;15.80;74.90;;;;;;4996013;28;19937;-96
2023/03/24 09:29:03;;;;;;;;;;;15.80;75.00;;;;;;4997111;28;19933;-96
2023/03/24 09:31:29;;;;;;;;;;;15.70;75.60;;;;;;4995725;28;20005;-96
2023/03/24 09:33:55;;;;;;;;;;;15.70;76.00;;;;;;4978730;28;19917;-96
2023/03/24 09:36:21;;;;;;;;;;;15.50;75.60;;;;;;4980881;28;19917;-96
2023/03/24 09:38:46;;;;;;;;;;;15.40;75.60;;;;;;5001709;28;19917;-96
2023/03/24 09:41:21;;;;;;;;;;;15.40;76.00;;;;;;4987345;28;19910;-96
2023/03/24 09:43:53;;;;;;;;;;;15.50;75.90;;;;;;5005365;28;19917;-96
2023/03/24 09:46:25;;;;;;;;;;;15.70;75.70;;;;;;4989020;28;19910;-96
2023/03/24 09:48:53;;;;;;;;;;;15.70;74.90;;;;;;5007879;28;19960;-96
2023/03/24 09:51:19;;;;;;;;;;;15.80;75.10;;;;;;5007218;28;19917;-96
2023/03/24 09:53:47;;;;;;;;;;;15.90;75.30;;;;;;5007102;28;19914;-96
2023/03/24 09:56:15;;;;;;;;;;;16.00;74.70;;;;;;5006167;28;19973;-96
2023/03/24 09:58:41;;;;;;;;;;;16.10;74.30;;;;;;4988943;28;19917;-96
2023/03/24 10:01:11;;;;;;;;;;;16.10;73.80;;;;;;4989865;28;19910;-96
2023/03/24 10:03:38;;;;;;;;;;;16.10;74.10;;;;;;4990215;28;19948;-96
2023/03/24 10:06:08;;;;;;;;;;;16.30;73.60;;;;;;5002425;28;19945;-96
2023/03/24 10:08:35;;;;;;;;;;;16.40;73.80;;;;;;4987657;28;19988;-96
2023/03/24 10:11:03;;;;;;;;;;;16.40;73.50;;;;;;5006969;28;19910;-96
2023/03/24 10:13:41;;;;;;;;;;;16.50;72.90;;;;;;5007292;28;20425;-95
2023/03/24 10:16:13;;;;;;;;;;;16.40;71.10;;;;;;5010365;28;20379;-96
2023/03/24 10:18:42;;;;;;;;;;;16.50;72.10;;;;;;4993228;28;19974;-96
2023/03/24 10:21:08;;;;;;;;;;;16.60;71.40;;;;;;4992293;28;19910;-96
2023/03/24 10:23:33;;;;;;;;;;;16.80;69.70;;;;;;5008011;28;20405;-96
2023/03/24 10:26:08;;;;;;;;;;;16.80;68.80;;;;;;4989629;28;20004;-96
2023/03/24 10:28:46;;;;;;;;;;;16.90;68.90;;;;;;5007748;28;19914;-95
2023/03/24 10:31:13;;;;;;;;;;;17.00;69.90;;;;;;4991162;28;19948;-95
2023/03/24 10:33:41;;;;;;;;;;;17.10;69.10;;;;;;5005933;28;19910;-96
2023/03/24 10:36:10;;;;;;;;;;;17.30;68.70;;;;;;5006349;28;19910;-96
2023/03/24 10:38:35;;;;;;;;;;;17.40;67.80;;;;;;5002776;28;19913;-96
2023/03/24 10:41:01;;;;;;;;;;;17.60;66.70;;;;;;4983207;28;19945;-95
2023/03/24 10:43:27;;;;;;;;;;;17.50;66.10;;;;;;4995955;28;20401;-96
2023/03/24 10:45:54;;;;;;;;;;;17.30;65.20;;;;;;4994529;28;19956;-96
2023/03/24 10:48:38;;;;;;;;;;;17.10;65.30;;;;;;4999975;28;19968;-96
2023/03/24 10:51:05;;;;;;;;;;;16.90;66.60;;;;;;4994893;28;19917;-96
2023/03/24 10:53:32;;;;;;;;;;;16.90;66.80;;;;;;4996471;28;19973;-96
2023/03/24 10:55:58;;;;;;;;;;;17.00;68.50;;;;;;5289580;22;19925;-96
2023/03/24 10:58:40;;;;;;;;;;;17.10;68.50;;;;;;5001510;28;19914;-96
2023/03/24 11:01:17;;;;;;;;;;;17.20;68.00;;;;;;4982882;28;20359;-96
2023/03/24 11:03:44;;;;;;;;;;;17.30;67.40;;;;;;4964183;28;19910;-96
2023/03/24 11:06:15;;;;;;;;;;;17.30;67.90;;;;;;4983343;28;19957;-96
2023/03/24 11:08:41;;;;;;;;;;;17.30;67.20;;;;;;4967033;28;19918;-96
2023/03/24 11:11:14;;;;;;;;;;;17.20;67.40;;;;;;4966490;28;19910;-96
2023/03/24 11:13:41;;;;;;;;;;;17.10;67.50;;;;;;4964089;28;20438;-96
2023/03/24 11:16:13;;;;;;;;;;;17.00;67.70;;;;;;4982675;28;19910;-96
2023/03/24 11:18:56;;;;;;;;;;;16.80;67.60;;;;;;4982522;28;19933;-96
2023/03/24 11:21:21;;;;;;;;;;;16.80;67.00;;;;;;4984054;28;19917;-96
2023/03/24 11:23:47;;;;;;;;;;;16.90;67.90;;;;;;4968831;28;19949;-96
2023/03/24 11:26:16;;;;;;;;;;;17.00;68.00;;;;;;4989111;28;19917;-96
2023/03/24 11:28:41;;;;;;;;;;;17.10;69.90;;;;;;4989512;28;19915;-96
2023/03/24 11:31:17;;;;;;;;;;;17.30;69.60;;;;;;4989191;28;19917;-96
2023/03/24 11:33:55;;;;;;;;;;;17.40;67.40;;;;;;4970799;28;19914;-96
2023/03/24 11:36:30;;;;;;;;;;;17.70;68.60;;;;;;4987084;28;19910;-96
2023/03/24 11:39:00;;;;;;;;;;;17.90;67.30;;;;;;4968487;28;19911;-96
2023/03/24 11:41:26;;;;;;;;;;;18.20;66.10;;;;;;4968231;28;19910;-96
2023/03/24 11:44:11;;;;;;;;;;;18.40;66.30;;;;;;4971058;28;19910;-96
2023/03/24 11:46:38;;;;;;;;;;;18.70;64.90;;;;;;4967187;28;20426;-96
2023/03/24 11:49:05;;;;;;;;;;;19.10;64.60;;;;;;4984366;28;19910;-96
2023/03/24 11:51:35;;;;;;;;;;;19.30;61.00;;;;;;4987669;28;19910;-96
2023/03/24 11:54:02;;;;;;;;;;;19.00;60.20;;;;;;4985324;28;19917;-96
2023/03/24 11:56:39;;;;;;;;;;;18.80;60.80;;;;;;4985767;28;20009;-96
2023/03/24 11:59:11;;;;;;;;;;;18.80;63.70;;;;;;4989461;28;19965;-96
2023/03/24 12:01:39;;;;;;;;;;;18.70;62.00;;;;;;4990243;28;19918;-96
2023/03/24 12:04:14;;;;;;;;;;;18.60;63.00;;;;;;4970160;28;19914;-96
2023/03/24 12:06:49;;;;;;;;;;;18.40;62.20;;;;;;4989126;28;19981;-96
2023/03/24 12:09:19;;;;;;;;;;;18.60;62.30;;;;;;4974487;28;19918;-96
2023/03/24 12:11:52;;;;;;;;;;;19.00;61.50;;;;;;4991102;28;19910;-96
2023/03/24 12:14:27;;;;;;;;;;;19.30;60.60;;;;;;4973490;28;19956;-96
2023/03/24 12:17:05;;;;;;;;;;;19.50;59.30;;;;;;4971619;28;20260;-96
2023/03/24 12:19:41;;;;;;;;;;;19.90;60.50;;;;;;4988258;28;19910;-96
2023/03/24 12:22:06;;;;;;;;;;;20.00;60.50;;;;;;4986115;28;19910;-96
2023/03/24 12:24:41;;;;;;;;;;;20.10;61.00;;;;;;4985345;28;20326;-96
2023/03/24 12:27:14;;;;;;;;;;;20.30;60.30;;;;;;4969437;28;20393;-96
2023/03/24 12:30:00;;;;;;;;;;;20.40;59.40;;;;;;4984835;28;19914;-96
2023/03/24 12:32:32;;;;;;;;;;;20.40;59.50;;;;;;4968741;28;19910;-96
2023/03/24 12:34:58;;;;;;;;;;;20.70;57.90;;;;;;4986032;28;20001;-96
2023/03/24 12:37:31;;;;;;;;;;;20.80;57.80;;;;;;4970398;28;19918;-96
2023/03/24 12:40:00;;;;;;;;;;;21.30;57.10;;;;;;4987608;28;19941;-96
2023/03/24 12:42:30;;;;;;;;;;;21.90;55.80;;;;;;4988082;28;19917;-96
2023/03/24 12:44:59;;;;;;;;;;;22.50;53.40;;;;;;4990143;28;19968;-96
2023/03/24 12:47:27;;;;;;;;;;;23.20;51.60;;;;;;4989371;28;19978;-96
2023/03/24 12:50:00;;;;;;;;;;;23.40;50.50;;;;;;4988138;28;19910;-96
2023/03/24 12:52:38;;;;;;;;;;;23.30;50.60;;;;;;4985926;28;19910;-96
2023/03/24 12:55:09;;;;;;;;;;;23.30;51.40;;;;;;4969022;28;19973;-96
2023/03/24 12:57:44;;;;;;;;;;;23.70;50.30;;;;;;4970639;28;19920;-96
2023/03/24 13:00:19;;;;;;;;;;;23.80;49.40;;;;;;4971204;28;19942;-96
2023/03/24 13:02:47;;;;;;;;;;;23.70;49.60;;;;;;4988980;28;19910;-96
2023/03/24 13:05:34;;;;;;;;;;;23.80;49.70;;;;;;4972380;28;19910;-96
2023/03/24 13:08:12;;;;;;;;;;;24.20;49.50;;;;;;4992968;28;19914;-96
2023/03/24 13:10:40;;;;;;;;;;;24.60;48.30;;;;;;4973840;28;19910;-96
2023/03/24 13:13:18;;;;;;;;;;;24.60;47.50;;;;;;4978855;28;19917;-96
2023/03/24 13:15:55;;;;;;;;;;;24.70;46.90;;;;;;4984698;28;19910;-96
2023/03/24 13:18:31;;;;;;;;;;;24.40;48.10;;;;;;4980553;28;20001;-96
2023/03/24 13:21:03;;;;;;;;;;;24.30;48.30;;;;;;4958991;28;20323;-95
2023/03/24 13:23:47;;;;;;;;;;;24.20;48.50;;;;;;4976575;28;19915;-96
2023/03/24 13:26:31;;;;;;;;;;;24.30;48.80;;;;;;4976045;28;19910;-96
2023/03/24 13:29:03;;;;;;;;;;;24.70;48.50;;;;;;4975930;28;19969;-96
2023/03/24 13:31:34;;;;;;;;;;;25.00;46.90;;;;;;4976348;28;19910;-96
2023/03/24 13:34:00;;;;;;;;;;;25.40;46.90;;;;;;4976469;28;19910;-96
2023/03/24 13:36:26;;;;;;;;;;;25.20;46.90;;;;;;4976119;28;19954;-96
2023/03/24 13:38:53;;;;;;;;;;;25.60;47.30;;;;;;4976000;28;19910;-96
2023/03/24 13:41:22;;;;;;;;;;;25.90;46.50;;;;;;4976047;28;20057;-96
2023/03/24 13:43:59;;;;;;;;;;;26.20;46.70;;;;;;4975778;28;19910;-96
2023/03/24 13:46:25;;;;;;;;;;;26.70;44.60;;;;;;4975820;28;19910;-96
2023/03/24 13:48:53;;;;;;;;;;;26.90;43.30;;;;;;4976317;28;19921;-96
2023/03/24 13:51:28;;;;;;;;;;;26.50;43.30;;;;;;4975736;28;20295;-96
2023/03/24 13:54:20;;;;;;;;;;;25.90;44.10;;;;;;4975658;28;19911;-96
2023/03/24 13:56:53;;;;;;;;;;;25.90;45.10;;;;;;4971670;28;19929;-96
2023/03/24 13:59:24;;;;;;;;;;;26.00;45.70;;;;;;4975711;28;19917;-96
2023/03/24 14:02:10;;;;;;;;;;;26.10;45.70;;;;;;4975520;28;19993;-96
2023/03/24 14:04:43;;;;;;;;;;;26.10;46.00;;;;;;4919451;28;20315;-96
2023/03/24 14:07:24;;;;;;;;;;;26.30;44.60;;;;;;4975458;28;19918;-96
2023/03/24 14:09:58;;;;;;;;;;;26.40;44.30;;;;;;4975487;28;19921;-96
2023/03/24 14:12:23;;;;;;;;;;;26.60;44.00;;;;;;4975408;28;20008;-96
2023/03/24 14:15:04;;;;;;;;;;;26.40;44.90;;;;;;4975448;28;19949;-96
2023/03/24 14:17:29;;;;;;;;;;;26.30;45.10;;;;;;4975240;28;20376;-96
2023/03/24 14:20:00;;;;;;;;;;;26.00;44.50;;;;;;4975309;28;19937;-96
2023/03/24 14:22:33;;;;;;;;;;;26.00;45.50;;;;;;4975148;28;19910;-96
2023/03/24 14:25:00;;;;;;;;;;;26.30;45.50;;;;;;4975243;28;20376;-96
2023/03/24 14:27:37;;;;;;;;;;;26.30;45.80;;;;;;4975188;28;20021;-96
2023/03/24 14:30:02;;;;;;;;;;;26.30;45.60;;;;;;4975409;28;20383;-96
2023/03/24 14:32:28;;;;;;;;;;;26.10;46.30;;;;;;4957861;28;19917;-96
2023/03/24 14:34:58;;;;;;;;;;;25.80;47.20;;;;;;4975215;28;20282;-96